Time;durP1;ratioP1;P1;durP2;ratioP2;P2;SDS_P1;SDS_P2;PMS_P1;PMS_P2;Temp;Humidity;BMP_temperature;BMP_pressure;BME280_temperature;BME280_humidity;BME280_pressure;Samples;Min_cycle;Max_cycle;Signal;HPM_P1;HPM_P2
2021/12/18 00:01:58;;;;;;;;;;;;;;;3.95;66.96;101197.44;4439973;32;32978;-63
2021/12/18 00:04:25;;;;;;;;;;;;;;;4.12;66.12;101196.44;4453843;32;36925;-63
2021/12/18 00:06:54;;;;;;;;;;;;;;;4.20;65.95;101199.72;4453977;32;34229;-63
2021/12/18 00:09:25;;;;;;;;;;;;;;;3.93;66.70;101204.06;4456199;32;34537;-64
2021/12/18 00:11:53;;;;;;;;;;;;;;;4.21;65.73;101201.50;4459764;32;33742;-63
2021/12/18 00:14:20;;;;;;;;;;;;;;;3.23;69.07;101209.44;4435477;32;34411;-63
2021/12/18 00:16:47;;;;;;;;;;;;;;;3.87;66.99;101214.66;4428488;32;32103;-64
2021/12/18 00:19:14;;;;;;;;;;;;;;;4.01;67.03;101208.25;4459605;32;34603;-63
2021/12/18 00:21:42;;;;;;;;;;;;;;;3.59;68.22;101215.38;4455680;32;34972;-64
2021/12/18 00:24:10;;;;;;;;;;;;;;;3.71;68.03;101222.56;4454444;32;34464;-63
2021/12/18 00:26:37;;;;;;;;;;;;;;;4.31;65.59;101220.47;4453884;32;33473;-63
2021/12/18 00:29:05;;;;;;;;;;;;;;;4.20;65.44;101217.66;4454250;32;34257;-63
2021/12/18 00:31:32;;;;;;;;;;;;;;;4.57;64.19;101223.63;4454663;32;34153;-63
2021/12/18 00:33:59;;;;;;;;;;;;;;;4.03;66.67;101222.12;4457797;32;34449;-63
2021/12/18 00:36:26;;;;;;;;;;;;;;;3.85;67.36;101221.31;4454089;32;33658;-63
2021/12/18 00:38:53;;;;;;;;;;;;;;;4.05;67.05;101232.53;4453377;32;35024;-63
2021/12/18 00:44:02;;;;;;;;;;;;;;;4.21;66.50;101222.03;4450145;32;35022;-63
2021/12/18 00:46:32;;;;;;;;;;;;;;;3.67;67.94;101224.69;4453003;32;33412;-63
2021/12/18 00:48:59;;;;;;;;;;;;;;;2.95;71.01;101232.38;4456760;32;34898;-63
2021/12/18 00:51:26;;;;;;;;;;;;;;;3.24;69.83;101226.59;4453791;32;35036;-63
2021/12/18 00:53:53;;;;;;;;;;;;;;;2.81;71.45;101227.53;4439556;32;32283;-64
2021/12/18 00:56:22;;;;;;;;;;;;;;;2.70;72.34;101223.03;4452932;32;33419;-63
2021/12/18 00:58:50;;;;;;;;;;;;;;;2.94;71.52;101220.31;4446580;32;34086;-63
2021/12/18 01:01:19;;;;;;;;;;;;;;;2.71;72.42;101228.28;4448355;32;34182;-63
2021/12/18 01:03:48;;;;;;;;;;;;;;;3.16;71.48;101224.97;4457822;32;34126;-63
2021/12/18 01:06:16;;;;;;;;;;;;;;;3.32;70.79;101212.91;4452904;32;31994;-63
2021/12/18 01:08:43;;;;;;;;;;;;;;;2.87;72.83;101233.25;4444365;32;34115;-63
2021/12/18 01:16:46;;;;;;;;;;;;;;;2.93;72.57;101223.63;4445961;32;33444;-64
2021/12/18 01:25:03;;;;;;;;;;;;;;;3.02;72.68;101231.31;4395725;32;34498;-63
2021/12/18 01:27:30;;;;;;;;;;;;;;;3.56;70.66;101241.59;4436760;32;34419;-64
2021/12/18 01:29:57;;;;;;;;;;;;;;;3.70;70.31;101241.25;4441184;32;34385;-64
2021/12/18 01:32:27;;;;;;;;;;;;;;;3.60;70.39;101248.81;4436485;32;33555;-63
2021/12/18 01:34:54;;;;;;;;;;;;;;;3.49;71.13;101259.69;4449915;32;34126;-64
2021/12/18 01:37:23;;;;;;;;;;;;;;;3.54;70.97;101258.50;4458019;32;33693;-63
2021/12/18 01:39:54;;;;;;;;;;;;;;;3.45;71.58;101263.63;4453545;32;33905;-63
2021/12/18 01:53:02;;;;;;;;;;;;;;;3.43;72.02;101260.00;4454175;32;33577;-63
2021/12/18 01:55:31;;;;;;;;;;;;;;;3.60;71.22;101268.44;4435798;32;33841;-64
2021/12/18 01:57:59;;;;;;;;;;;;;;;3.87;69.90;101265.03;4458007;32;33300;-64
2021/12/18 02:00:27;;;;;;;;;;;;;;;3.73;70.15;101267.19;4454605;32;34000;-63
2021/12/18 02:02:55;;;;;;;;;;;;;;;3.62;70.62;101272.03;4452856;32;34054;-63
2021/12/18 02:05:22;;;;;;;;;;;;;;;3.69;70.19;101271.84;4449564;32;34432;-63
2021/12/18 02:07:49;;;;;;;;;;;;;;;4.00;69.14;101267.06;4455431;32;34169;-64
2021/12/18 02:10:23;;;;;;;;;;;;;;;3.76;69.49;101255.41;4437613;32;33673;-64
2021/12/18 02:21:06;;;;;;;;;;;;;;;3.76;69.58;101287.06;4455669;32;35069;-63
2021/12/18 02:23:34;;;;;;;;;;;;;;;3.76;69.77;101291.28;4447237;32;32497;-63
2021/12/18 02:26:01;;;;;;;;;;;;;;;3.77;69.64;101298.22;4448337;32;35038;-64
2021/12/18 02:28:28;;;;;;;;;;;;;;;3.20;71.38;101296.19;4453824;32;33499;-64
2021/12/18 02:30:57;;;;;;;;;;;;;;;3.65;70.52;101292.81;4454176;32;34141;-63
2021/12/18 02:33:25;;;;;;;;;;;;;;;3.76;69.72;101288.72;4447363;32;33882;-64
2021/12/18 02:35:54;;;;;;;;;;;;;;;3.91;69.16;101287.63;4448860;32;34005;-63
2021/12/18 02:38:30;;;;;;;;;;;;;;;3.96;68.94;101294.09;4453579;32;34140;-63
2021/12/18 02:43:26;;;;;;;;;;;;;;;3.45;70.33;101289.25;4454185;32;34854;-63
2021/12/18 02:45:55;;;;;;;;;;;;;;;3.51;70.72;101299.19;4443564;32;33596;-63
2021/12/18 02:48:23;;;;;;;;;;;;;;;3.60;70.35;101310.31;4441983;32;31752;-63
2021/12/18 02:50:50;;;;;;;;;;;;;;;3.39;71.41;101329.63;4445595;32;34825;-63
2021/12/18 02:53:17;;;;;;;;;;;;;;;3.73;69.61;101318.44;4451656;32;33647;-63
2021/12/18 02:55:45;;;;;;;;;;;;;;;3.61;69.86;101314.72;4454828;32;34413;-64
2021/12/18 02:58:12;;;;;;;;;;;;;;;3.79;69.55;101307.87;4454480;32;33707;-63
2021/12/18 03:00:39;;;;;;;;;;;;;;;4.05;68.57;101310.34;4436825;32;32150;-65
2021/12/18 03:03:09;;;;;;;;;;;;;;;3.60;69.61;101288.94;4452593;32;34234;-64
2021/12/18 03:05:45;;;;;;;;;;;;;;;3.57;70.10;101304.87;4455039;32;33490;-63
2021/12/18 03:08:20;;;;;;;;;;;;;;;3.58;70.15;101299.03;4456585;32;33589;-63
2021/12/18 03:22:45;;;;;;;;;;;;;;;3.63;69.46;101328.56;4457735;32;34664;-63
2021/12/18 03:25:08;;;;;;;;;;;;;;;3.83;69.04;101319.34;4452489;32;33958;-63
2021/12/18 03:27:29;;;;;;;;;;;;;;;3.65;69.44;101329.63;4450750;32;35005;-63
2021/12/18 03:29:57;;;;;;;;;;;;;;;3.65;69.24;101339.88;4443647;32;33413;-63
2021/12/18 03:32:24;;;;;;;;;;;;;;;3.59;69.62;101346.03;4452282;32;34803;-63
2021/12/18 03:34:52;;;;;;;;;;;;;;;3.66;68.97;101341.66;4454329;32;33962;-64
2021/12/18 03:37:19;;;;;;;;;;;;;;;3.69;69.00;101341.97;4458823;32;34258;-64
2021/12/18 03:39:47;;;;;;;;;;;;;;;3.61;69.15;101345.47;4452425;32;33423;-64
2021/12/18 03:42:14;;;;;;;;;;;;;;;3.41;69.89;101342.59;4461413;32;34120;-64
2021/12/18 03:44:41;;;;;;;;;;;;;;;3.49;69.59;101351.94;4455670;32;34156;-64
2021/12/18 03:47:09;;;;;;;;;;;;;;;3.34;69.96;101347.12;4428704;32;33840;-64
2021/12/18 03:49:36;;;;;;;;;;;;;;;3.31;70.20;101341.69;4453101;32;33430;-64
2021/12/18 03:52:04;;;;;;;;;;;;;;;3.33;70.26;101329.94;4453648;32;34300;-64
2021/12/18 03:54:31;;;;;;;;;;;;;;;3.40;69.88;101335.66;4454421;32;34275;-63
2021/12/18 03:56:58;;;;;;;;;;;;;;;3.49;69.60;101349.38;4458724;32;35509;-63
2021/12/18 03:59:25;;;;;;;;;;;;;;;3.59;68.92;101341.81;4453928;32;33659;-63
2021/12/18 04:01:53;;;;;;;;;;;;;;;3.37;70.02;101351.63;4439467;32;35017;-63
2021/12/18 04:04:20;;;;;;;;;;;;;;;3.42;69.71;101349.50;4460572;32;35050;-64
2021/12/18 04:06:48;;;;;;;;;;;;;;;3.56;69.27;101359.47;4454657;32;35249;-64
2021/12/18 04:09:16;;;;;;;;;;;;;;;3.42;69.71;101359.75;4454197;32;34203;-65
2021/12/18 04:11:43;;;;;;;;;;;;;;;3.53;69.35;101354.03;4451020;32;34045;-64
2021/12/18 04:14:11;;;;;;;;;;;;;;;3.42;69.73;101336.72;4457924;32;36095;-64
2021/12/18 04:16:39;;;;;;;;;;;;;;;3.43;69.76;101333.41;4462624;32;33814;-64
2021/12/18 04:19:06;;;;;;;;;;;;;;;3.29;70.24;101332.97;4456907;32;33738;-65
2021/12/18 04:21:34;;;;;;;;;;;;;;;3.26;70.34;101324.97;4453936;32;33726;-64
2021/12/18 04:24:03;;;;;;;;;;;;;;;3.33;69.99;101324.81;4455992;32;34369;-63
2021/12/18 04:26:33;;;;;;;;;;;;;;;3.53;69.25;101349.84;4425951;32;32761;-63
2021/12/18 04:29:05;;;;;;;;;;;;;;;3.18;70.11;101343.78;4460249;32;34054;-63
2021/12/18 04:31:33;;;;;;;;;;;;;;;3.37;69.70;101351.63;4453306;32;34308;-63
2021/12/18 04:34:01;;;;;;;;;;;;;;;3.33;69.48;101353.00;4454650;32;34200;-63
2021/12/18 04:36:28;;;;;;;;;;;;;;;3.47;69.29;101348.31;4438117;32;33314;-64
2021/12/18 04:38:55;;;;;;;;;;;;;;;3.34;69.77;101357.38;4459638;32;33594;-64
2021/12/18 04:41:38;;;;;;;;;;;;;;;3.15;70.33;101353.75;4443152;32;34085;-63
2021/12/18 04:44:05;;;;;;;;;;;;;;;3.40;69.30;101356.16;4461286;32;33846;-63
2021/12/18 04:46:33;;;;;;;;;;;;;;;3.29;69.71;101362.78;4445270;32;34019;-63
2021/12/18 04:49:00;;;;;;;;;;;;;;;3.26;69.88;101368.50;4454130;32;33654;-64
2021/12/18 04:51:27;;;;;;;;;;;;;;;3.70;68.06;101374.50;4443415;32;33410;-64
2021/12/18 04:53:54;;;;;;;;;;;;;;;3.61;68.22;101375.28;4458333;32;34698;-64
2021/12/18 04:56:22;;;;;;;;;;;;;;;3.55;68.54;101390.94;4452417;32;35220;-64
2021/12/18 04:58:49;;;;;;;;;;;;;;;3.19;69.88;101391.72;4452622;32;33477;-64
2021/12/18 05:01:17;;;;;;;;;;;;;;;3.51;68.78;101397.44;4451257;32;34080;-64
2021/12/18 05:03:45;;;;;;;;;;;;;;;3.50;68.40;101405.88;4452529;32;34267;-64
2021/12/18 05:06:13;;;;;;;;;;;;;;;3.17;69.65;101411.12;4452660;32;34371;-64
2021/12/18 05:08:40;;;;;;;;;;;;;;;3.78;67.18;101407.69;4458634;32;34187;-63
2021/12/18 05:11:07;;;;;;;;;;;;;;;4.10;65.83;101408.25;4451955;32;34887;-64
2021/12/18 05:13:35;;;;;;;;;;;;;;;3.22;69.12;101417.59;4460436;32;34069;-64
2021/12/18 05:16:02;;;;;;;;;;;;;;;3.51;68.10;101429.84;4451998;32;34510;-64
2021/12/18 05:18:29;;;;;;;;;;;;;;;3.92;66.26;101433.00;4455819;32;34117;-64
2021/12/18 05:20:57;;;;;;;;;;;;;;;4.39;64.67;101438.34;4437506;32;34174;-64
2021/12/18 05:23:24;;;;;;;;;;;;;;;3.83;66.12;101437.25;4453127;32;33976;-64
2021/12/18 05:25:51;;;;;;;;;;;;;;;4.34;64.78;101440.47;4439033;32;32563;-64
2021/12/18 05:28:18;;;;;;;;;;;;;;;4.99;62.35;101441.41;4453857;32;34437;-64
2021/12/18 05:30:46;;;;;;;;;;;;;;;4.38;64.31;101441.66;4451865;32;34278;-64
2021/12/18 05:33:13;;;;;;;;;;;;;;;5.00;61.96;101440.63;4455640;32;34920;-64
2021/12/18 05:35:40;;;;;;;;;;;;;;;4.83;62.38;101445.12;4452761;32;34706;-64
2021/12/18 05:38:07;;;;;;;;;;;;;;;4.66;62.45;101451.22;4464627;32;34172;-64
2021/12/18 05:40:37;;;;;;;;;;;;;;;4.79;62.49;101440.47;4456523;32;33955;-63
2021/12/18 05:43:06;;;;;;;;;;;;;;;4.72;62.73;101441.53;4435203;32;33384;-64
2021/12/18 05:45:33;;;;;;;;;;;;;;;3.89;64.77;101448.09;4457466;32;35405;-64
2021/12/18 05:48:00;;;;;;;;;;;;;;;4.44;63.62;101442.22;4423290;32;34061;-64
2021/12/18 05:50:29;;;;;;;;;;;;;;;4.53;63.01;101456.84;4450721;32;35399;-64
2021/12/18 05:52:59;;;;;;;;;;;;;;;4.06;65.05;101460.87;4449402;32;34235;-64
2021/12/18 05:55:29;;;;;;;;;;;;;;;4.51;63.58;101455.78;4443038;32;34442;-64
2021/12/18 05:57:57;;;;;;;;;;;;;;;4.24;64.17;101469.44;4451100;32;33781;-64
2021/12/18 06:00:25;;;;;;;;;;;;;;;4.00;64.64;101465.44;4440369;32;34252;-64
2021/12/18 06:02:52;;;;;;;;;;;;;;;4.21;64.22;101469.19;4438576;32;33662;-64
2021/12/18 06:05:19;;;;;;;;;;;;;;;5.02;61.70;101472.50;4450233;32;34436;-64
2021/12/18 06:10:23;;;;;;;;;;;;;;;4.90;61.38;101468.03;4455646;32;33684;-64
2021/12/18 06:12:50;;;;;;;;;;;;;;;4.59;62.42;101459.09;4441074;32;33414;-64
2021/12/18 06:15:18;;;;;;;;;;;;;;;3.59;65.47;101464.81;4453962;32;34534;-64
2021/12/18 06:17:45;;;;;;;;;;;;;;;3.59;66.24;101471.59;4429516;32;34378;-64
2021/12/18 06:20:12;;;;;;;;;;;;;;;3.69;65.91;101477.78;4464353;32;33928;-64
2021/12/18 06:22:39;;;;;;;;;;;;;;;3.12;68.09;101472.12;4459119;32;34009;-64
2021/12/18 06:25:07;;;;;;;;;;;;;;;3.08;68.21;101471.66;4464104;32;34538;-64
2021/12/18 06:27:34;;;;;;;;;;;;;;;3.11;68.18;101479.62;4443181;32;34016;-64
2021/12/18 06:30:03;;;;;;;;;;;;;;;2.94;68.67;101475.38;4458264;32;34684;-64
2021/12/18 06:32:30;;;;;;;;;;;;;;;2.92;68.87;101471.75;4438773;32;34383;-64
2021/12/18 06:34:57;;;;;;;;;;;;;;;3.19;67.55;101473.66;4452874;32;35022;-64
2021/12/18 06:37:25;;;;;;;;;;;;;;;3.01;68.09;101472.66;4442499;32;33665;-64
2021/12/18 06:39:52;;;;;;;;;;;;;;;3.09;67.93;101465.78;4458765;32;34153;-64
2021/12/18 06:42:36;;;;;;;;;;;;;;;2.69;69.56;101478.00;4452025;32;34859;-64
2021/12/18 06:45:03;;;;;;;;;;;;;;;3.15;67.78;101476.66;4449332;32;35169;-64
2021/12/18 06:47:31;;;;;;;;;;;;;;;3.27;67.04;101483.00;4448885;32;34022;-64
2021/12/18 06:49:58;;;;;;;;;;;;;;;3.33;66.61;101493.84;4456891;32;34952;-64
2021/12/18 06:52:25;;;;;;;;;;;;;;;3.40;66.82;101500.53;4451412;32;33946;-64
2021/12/18 06:54:52;;;;;;;;;;;;;;;3.39;67.14;101503.81;4454231;32;33673;-64
2021/12/18 06:57:22;;;;;;;;;;;;;;;2.95;68.91;101513.94;4452005;32;34293;-64
2021/12/18 06:59:50;;;;;;;;;;;;;;;3.34;67.21;101500.81;4460504;32;33049;-64
2021/12/18 07:02:17;;;;;;;;;;;;;;;3.08;68.10;101508.41;4452439;32;34047;-64
2021/12/18 07:04:45;;;;;;;;;;;;;;;2.93;68.69;101505.16;4451187;32;34491;-64
2021/12/18 07:07:12;;;;;;;;;;;;;;;2.79;69.39;101502.88;4455161;32;33353;-64
2021/12/18 07:09:40;;;;;;;;;;;;;;;3.00;68.71;101500.72;4455733;32;33381;-64
2021/12/18 07:12:10;;;;;;;;;;;;;;;2.76;69.39;101499.97;4454205;32;34303;-64
2021/12/18 07:14:37;;;;;;;;;;;;;;;3.01;68.96;101497.38;4452876;32;34105;-64
2021/12/18 07:17:04;;;;;;;;;;;;;;;3.08;68.64;101497.25;4452941;32;33371;-64
2021/12/18 07:19:31;;;;;;;;;;;;;;;2.59;70.29;101497.34;4440450;32;33338;-64
2021/12/18 07:21:59;;;;;;;;;;;;;;;3.01;69.29;101498.28;4454844;32;33811;-64
2021/12/18 07:24:26;;;;;;;;;;;;;;;2.50;71.26;101504.97;4452045;32;34212;-64
2021/12/18 07:26:53;;;;;;;;;;;;;;;2.75;70.82;101495.63;4450122;32;34019;-64
2021/12/18 07:29:21;;;;;;;;;;;;;;;2.47;71.71;101502.09;4453927;32;34944;-64
2021/12/18 07:31:48;;;;;;;;;;;;;;;2.75;70.89;101503.31;4453478;32;35039;-64
2021/12/18 07:34:15;;;;;;;;;;;;;;;2.56;71.76;101508.16;4439763;32;34196;-64
2021/12/18 07:36:43;;;;;;;;;;;;;;;2.72;71.10;101509.03;4452024;32;33244;-64
2021/12/18 07:39:11;;;;;;;;;;;;;;;2.78;70.67;101513.84;4440246;32;34972;-64
2021/12/18 07:41:38;;;;;;;;;;;;;;;2.82;70.74;101518.56;4453289;32;34217;-64
2021/12/18 07:44:07;;;;;;;;;;;;;;;2.84;70.31;101509.38;4451323;32;34383;-64
2021/12/18 07:46:35;;;;;;;;;;;;;;;2.72;71.24;101523.44;4452233;32;33590;-64
2021/12/18 07:49:03;;;;;;;;;;;;;;;2.92;70.72;101522.97;4449468;32;33912;-64
2021/12/18 07:51:31;;;;;;;;;;;;;;;2.82;70.94;101526.22;4450783;32;33767;-64
2021/12/18 07:53:58;;;;;;;;;;;;;;;2.82;70.91;101532.97;4453229;32;34521;-64
2021/12/18 07:56:25;;;;;;;;;;;;;;;2.94;70.74;101527.47;4455715;32;33779;-62
2021/12/18 07:58:53;;;;;;;;;;;;;;;3.07;70.13;101541.53;4451819;32;33893;-63
2021/12/18 08:01:20;;;;;;;;;;;;;;;3.03;70.40;101541.97;4452745;32;34129;-63
2021/12/18 08:03:48;;;;;;;;;;;;;;;3.19;70.10;101549.53;4450965;32;34450;-63
2021/12/18 08:06:16;;;;;;;;;;;;;;;3.20;69.79;101543.69;4452278;32;33287;-64
2021/12/18 08:08:43;;;;;;;;;;;;;;;3.18;69.93;101540.06;4453693;32;34220;-62
2021/12/18 08:11:11;;;;;;;;;;;;;;;3.27;69.58;101529.09;4451490;32;35025;-63
2021/12/18 08:13:38;;;;;;;;;;;;;;;3.37;69.55;101522.34;4441318;32;34264;-63
2021/12/18 08:16:05;;;;;;;;;;;;;;;3.27;69.52;101534.22;4453557;32;33512;-63
2021/12/18 08:18:33;;;;;;;;;;;;;;;3.51;68.94;101540.00;4454312;32;34781;-64
2021/12/18 08:21:00;;;;;;;;;;;;;;;3.56;68.50;101538.81;4454661;32;34267;-64
2021/12/18 08:23:27;;;;;;;;;;;;;;;3.39;69.02;101538.78;4457370;32;35113;-63
2021/12/18 08:25:55;;;;;;;;;;;;;;;3.37;69.23;101540.28;4435569;32;34260;-63
2021/12/18 08:28:22;;;;;;;;;;;;;;;3.29;69.42;101542.06;4451409;32;34858;-64
2021/12/18 08:30:50;;;;;;;;;;;;;;;3.22;69.54;101535.41;4451685;32;34244;-66
2021/12/18 08:33:17;;;;;;;;;;;;;;;3.45;68.94;101524.91;4451680;32;34225;-64
2021/12/18 08:35:45;;;;;;;;;;;;;;;3.50;68.79;101527.97;4449696;32;31893;-64
2021/12/18 08:38:12;;;;;;;;;;;;;;;3.39;68.97;101529.44;4451617;32;34713;-63
2021/12/18 08:40:41;;;;;;;;;;;;;;;3.51;68.28;101529.75;4453692;32;34920;-64
2021/12/18 08:43:09;;;;;;;;;;;;;;;3.53;68.60;101529.19;4458777;32;35170;-64
2021/12/18 08:45:36;;;;;;;;;;;;;;;3.82;67.89;101532.81;4453313;32;33704;-64
2021/12/18 08:48:03;;;;;;;;;;;;;;;3.59;68.26;101527.97;4423550;32;34914;-66
2021/12/18 08:50:31;;;;;;;;;;;;;;;3.90;66.95;101531.91;4451398;32;34078;-64
2021/12/18 08:52:58;;;;;;;;;;;;;;;3.80;66.65;101534.34;4445471;32;34161;-63
2021/12/18 08:55:26;;;;;;;;;;;;;;;3.60;67.55;101532.34;4460138;32;33284;-64
2021/12/18 08:57:53;;;;;;;;;;;;;;;3.80;66.99;101529.22;4459842;32;33921;-63
2021/12/18 09:00:21;;;;;;;;;;;;;;;3.92;67.12;101536.47;4463559;32;33519;-63
2021/12/18 09:02:50;;;;;;;;;;;;;;;4.19;65.46;101533.88;4451265;32;34503;-63
2021/12/18 09:05:18;;;;;;;;;;;;;;;4.30;65.33;101530.72;4458594;32;34215;-64
2021/12/18 09:07:45;;;;;;;;;;;;;;;4.02;65.66;101525.47;4460753;32;35006;-63
2021/12/18 09:10:12;;;;;;;;;;;;;;;4.27;65.19;101525.31;4466472;32;34176;-63
2021/12/18 09:12:39;;;;;;;;;;;;;;;4.20;65.86;101522.88;4455897;32;34814;-65
2021/12/18 09:15:07;;;;;;;;;;;;;;;4.37;65.21;101527.09;4459351;32;33532;-65
2021/12/18 09:17:34;;;;;;;;;;;;;;;3.41;68.33;101527.94;4443260;32;34166;-65
2021/12/18 09:20:02;;;;;;;;;;;;;;;3.94;66.50;101524.69;4453916;32;33938;-65
2021/12/18 09:22:29;;;;;;;;;;;;;;;4.42;64.41;101515.59;4451561;32;34395;-63
2021/12/18 09:24:57;;;;;;;;;;;;;;;4.63;63.70;101519.31;4465070;32;33723;-65
2021/12/18 09:27:24;;;;;;;;;;;;;;;4.13;65.11;101517.16;4454137;32;34144;-66
2021/12/18 09:29:51;;;;;;;;;;;;;;;4.18;64.54;101521.84;4456761;32;34148;-65
2021/12/18 09:32:18;;;;;;;;;;;;;;;4.47;63.49;101516.97;4462259;32;34326;-65
2021/12/18 09:34:46;;;;;;;;;;;;;;;4.55;63.65;101522.81;4461959;32;34378;-65
2021/12/18 09:37:13;;;;;;;;;;;;;;;4.44;63.84;101514.09;4454953;32;34311;-62
2021/12/18 09:39:40;;;;;;;;;;;;;;;4.26;63.47;101513.22;4455231;32;33898;-66
2021/12/18 09:42:07;;;;;;;;;;;;;;;4.68;63.06;101515.56;4455326;32;35145;-65
2021/12/18 09:44:35;;;;;;;;;;;;;;;4.96;61.92;101519.06;4469110;32;33549;-64
2021/12/18 09:47:03;;;;;;;;;;;;;;;4.67;61.98;101518.84;4441572;32;33935;-68
2021/12/18 09:49:30;;;;;;;;;;;;;;;4.61;62.27;101526.88;4454918;32;34868;-63
2021/12/18 09:51:57;;;;;;;;;;;;;;;4.62;62.68;101530.38;4441583;32;34383;-65
2021/12/18 09:54:25;;;;;;;;;;;;;;;5.02;61.96;101523.88;4455978;32;34078;-67
2021/12/18 09:56:52;;;;;;;;;;;;;;;4.37;62.85;101522.84;4441368;32;32463;-65
2021/12/18 09:59:19;;;;;;;;;;;;;;;4.15;63.27;101514.72;4455281;32;34149;-65
2021/12/18 10:01:47;;;;;;;;;;;;;;;4.38;62.49;101509.25;4453909;32;34597;-68
2021/12/18 10:04:23;;;;;;;;;;;;;;;4.22;63.36;101505.97;4459733;32;33800;-65
2021/12/18 10:06:51;;;;;;;;;;;;;;;4.65;61.62;101515.25;4452241;32;34279;-63
2021/12/18 10:09:21;;;;;;;;;;;;;;;4.62;61.95;101504.69;4457020;32;35073;-62
2021/12/18 10:11:50;;;;;;;;;;;;;;;4.71;61.34;101510.69;4456708;32;33520;-64
2021/12/18 10:14:17;;;;;;;;;;;;;;;4.78;61.40;101507.97;4455199;32;33645;-63
2021/12/18 10:16:49;;;;;;;;;;;;;;;4.80;60.84;101493.59;4461516;32;34121;-63
2021/12/18 10:19:25;;;;;;;;;;;;;;;4.74;61.04;101500.72;4449066;32;34930;-63
2021/12/18 10:21:57;;;;;;;;;;;;;;;4.74;61.15;101490.47;4451352;32;34530;-64
2021/12/18 10:24:25;;;;;;;;;;;;;;;5.08;60.50;101494.56;4432122;32;32834;-64
2021/12/18 10:26:52;;;;;;;;;;;;;;;5.01;60.46;101492.16;4439028;32;33752;-62
2021/12/18 10:29:24;;;;;;;;;;;;;;;4.90;59.66;101497.94;4453999;32;33853;-64
2021/12/18 10:31:51;;;;;;;;;;;;;;;5.20;59.80;101493.91;4457717;32;35056;-63
2021/12/18 10:34:20;;;;;;;;;;;;;;;5.05;59.44;101488.22;4447971;32;33601;-65
2021/12/18 10:37:06;;;;;;;;;;;;;;;5.37;59.15;101487.72;4441212;32;34319;-64
2021/12/18 10:39:34;;;;;;;;;;;;;;;5.31;59.18;101483.84;4429345;32;32394;-64
2021/12/18 10:42:41;;;;;;;;;;;;;;;5.28;58.40;101463.00;4439471;32;35192;-62
2021/12/18 10:45:10;;;;;;;;;;;;;;;5.28;58.58;101468.13;4407379;32;33641;-63
2021/12/18 10:47:45;;;;;;;;;;;;;;;5.40;58.09;101458.06;4408582;32;35060;-61
2021/12/18 10:50:35;;;;;;;;;;;;;;;5.41;58.28;101449.63;4429654;32;34951;-63
2021/12/18 10:53:16;;;;;;;;;;;;;;;5.62;56.74;101450.69;4444804;32;34762;-62
2021/12/18 10:55:53;;;;;;;;;;;;;;;5.47;57.10;101444.13;4449136;32;33514;-62
2021/12/18 10:58:33;;;;;;;;;;;;;;;5.88;56.31;101446.97;4454657;32;35061;-62
2021/12/18 11:01:03;;;;;;;;;;;;;;;6.00;55.37;101440.37;4441400;32;34876;-63
2021/12/18 11:03:33;;;;;;;;;;;;;;;5.52;56.90;101437.72;4459105;32;34363;-63
2021/12/18 11:06:02;;;;;;;;;;;;;;;5.90;56.57;101432.59;4455154;32;34247;-63
2021/12/18 11:08:29;;;;;;;;;;;;;;;6.04;54.92;101421.88;4449271;32;173497;-63
2021/12/18 11:13:50;;;;;;;;;;;;;;;5.69;55.51;101426.41;4454113;32;34369;-64
2021/12/18 11:16:18;;;;;;;;;;;;;;;5.80;55.74;101417.09;4450447;32;33749;-64
2021/12/18 11:18:46;;;;;;;;;;;;;;;5.78;55.54;101410.94;4451766;32;33892;-65
2021/12/18 11:21:13;;;;;;;;;;;;;;;5.68;55.67;101389.53;4461630;32;34990;-65
2021/12/18 11:23:47;;;;;;;;;;;;;;;5.56;56.52;101387.50;4457915;32;34501;-64
2021/12/18 11:26:14;;;;;;;;;;;;;;;5.71;56.16;101400.06;4454827;32;33595;-64
2021/12/18 11:28:43;;;;;;;;;;;;;;;5.64;55.67;101378.81;4456971;32;34977;-64
2021/12/18 11:31:12;;;;;;;;;;;;;;;5.55;56.25;101384.03;4440568;32;32955;-63
2021/12/18 11:33:39;;;;;;;;;;;;;;;5.75;55.08;101364.34;4432931;32;34261;-64
2021/12/18 11:36:09;;;;;;;;;;;;;;;5.72;55.36;101370.13;4453705;32;32512;-64
2021/12/18 11:38:37;;;;;;;;;;;;;;;5.78;55.47;101369.78;4439521;32;34003;-64
2021/12/18 11:41:05;;;;;;;;;;;;;;;5.58;55.82;101360.28;4450333;32;34104;-64
2021/12/18 11:43:40;;;;;;;;;;;;;;;5.39;56.38;101353.50;4453677;32;34295;-63
2021/12/18 11:46:30;;;;;;;;;;;;;;;5.48;56.12;101361.12;4450506;32;33833;-64
2021/12/18 11:48:57;;;;;;;;;;;;;;;5.45;56.49;101373.72;4446028;32;34225;-64
2021/12/18 11:52:10;;;;;;;;;;;;;;;6.21;54.45;101353.00;4475414;31;782507;-63
2021/12/18 11:54:47;;;;;;;;;;;;;;;6.21;54.45;101353.00;4498349;31;32842;-63
2021/12/18 11:57:33;;;;;;;;;;;;;;;5.62;55.41;101363.28;4496792;31;35169;-63
2021/12/18 12:00:03;;;;;;;;;;;;;;;5.64;56.23;101361.75;4489045;31;34893;-65
2021/12/18 12:02:42;;;;;;;;;;;;;;;5.84;55.62;101365.19;4497201;31;34267;-64
2021/12/18 12:05:09;;;;;;;;;;;;;;;5.79;55.73;101363.84;4499104;31;33478;-64
2021/12/18 12:07:37;;;;;;;;;;;;;;;5.69;56.09;101355.31;4501135;31;34242;-64
2021/12/18 12:10:21;;;;;;;;;;;;;;;5.86;55.32;101355.94;4490254;31;33877;-64
2021/12/18 12:12:49;;;;;;;;;;;;;;;5.70;56.15;101352.00;4501524;31;34790;-63
2021/12/18 12:15:17;;;;;;;;;;;;;;;5.83;56.07;101340.22;4501488;31;33497;-64
2021/12/18 12:18:08;;;;;;;;;;;;;;;5.90;55.66;101340.00;4489143;31;34738;-65
2021/12/18 12:20:40;;;;;;;;;;;;;;;6.00;55.73;101347.78;4498382;31;34278;-64
2021/12/18 12:23:09;;;;;;;;;;;;;;;6.21;55.38;101347.84;4497515;31;34017;-62
2021/12/18 12:25:38;;;;;;;;;;;;;;;6.26;55.01;101362.03;4500410;31;33981;-63
2021/12/18 12:28:10;;;;;;;;;;;;;;;5.87;55.43;101353.50;4503669;31;34114;-65
2021/12/18 12:30:43;;;;;;;;;;;;;;;5.65;55.64;101342.06;4501375;31;35152;-64
2021/12/18 12:33:21;;;;;;;;;;;;;;;5.57;55.98;101343.94;4486420;31;34029;-64
2021/12/18 12:35:57;;;;;;;;;;;;;;;5.62;56.64;101358.13;4489621;31;33306;-65
2021/12/18 12:38:35;;;;;;;;;;;;;;;5.68;55.46;101352.63;4507007;31;34933;-62
2021/12/18 12:41:21;;;;;;;;;;;;;;;5.50;56.55;101346.72;4498010;32;34250;-65
2021/12/18 12:43:49;;;;;;;;;;;;;;;5.45;56.53;101360.84;4501286;31;33642;-66
2021/12/18 12:46:17;;;;;;;;;;;;;;;5.64;55.88;101358.25;4511536;31;33482;-67
2021/12/18 12:48:58;;;;;;;;;;;;;;;5.90;55.38;101358.00;4497331;31;34711;-67
2021/12/18 12:51:26;;;;;;;;;;;;;;;5.94;55.48;101356.59;4500854;31;34943;-67
2021/12/18 12:53:53;;;;;;;;;;;;;;;6.28;55.19;101352.78;4488228;32;34232;-65
2021/12/18 12:56:22;;;;;;;;;;;;;;;6.18;54.41;101337.28;4496715;32;33064;-67
2021/12/18 12:59:16;;;;;;;;;;;;;;;5.58;55.62;101335.50;4496276;31;34053;-66
2021/12/18 13:01:43;;;;;;;;;;;;;;;5.89;55.74;101345.91;4494903;31;35103;-67
2021/12/18 13:04:14;;;;;;;;;;;;;;;5.87;55.36;101344.84;4473513;32;34718;-67
2021/12/18 13:06:41;;;;;;;;;;;;;;;5.82;54.57;101341.00;4499850;31;34259;-67
2021/12/18 13:09:09;;;;;;;;;;;;;;;5.72;55.23;101350.47;4459918;32;32139;-64
2021/12/18 13:11:39;;;;;;;;;;;;;;;5.64;55.43;101348.87;4495070;31;34870;-65
2021/12/18 13:14:11;;;;;;;;;;;;;;;5.57;55.10;101343.94;4491332;31;33676;-64
2021/12/18 13:16:39;;;;;;;;;;;;;;;5.45;55.31;101332.59;4487059;32;33365;-64
2021/12/18 13:19:06;;;;;;;;;;;;;;;5.55;55.50;101324.94;4483561;32;32244;-67
2021/12/18 13:21:35;;;;;;;;;;;;;;;5.56;55.65;101321.56;4487101;32;34836;-63
2021/12/18 13:24:09;;;;;;;;;;;;;;;5.75;55.57;101325.78;4487290;32;34128;-66
2021/12/18 13:26:38;;;;;;;;;;;;;;;5.59;55.86;101332.13;4487044;32;33960;-66
2021/12/18 13:29:06;;;;;;;;;;;;;;;5.68;55.30;101337.22;4473045;32;34035;-66
2021/12/18 13:31:35;;;;;;;;;;;;;;;5.21;56.49;101342.44;4494897;31;34872;-65
2021/12/18 13:34:06;;;;;;;;;;;;;;;5.32;56.06;101346.88;4491436;31;34568;-66
2021/12/18 13:36:37;;;;;;;;;;;;;;;5.28;56.55;101344.81;4500178;31;33346;-66
2021/12/18 13:39:31;;;;;;;;;;;;;;;5.81;55.03;101336.59;4486864;32;34759;-68
2021/12/18 13:42:00;;;;;;;;;;;;;;;5.46;56.15;101329.25;4462199;32;33469;-66
2021/12/18 13:44:45;;;;;;;;;;;;;;;5.20;57.53;101340.66;4486734;32;34357;-67
2021/12/18 13:47:13;;;;;;;;;;;;;;;5.86;56.24;101325.06;4485330;32;34173;-67
2021/12/18 13:49:41;;;;;;;;;;;;;;;5.55;57.30;101324.94;4478338;32;34562;-67
2021/12/18 13:52:11;;;;;;;;;;;;;;;5.64;56.92;101323.19;4463635;32;32615;-66